KACT

Waco Regional Airport

Airport
ICAO code
KACT
Summary
ICAO Region
NAM
ICAO Territory
Location

Waco, Texas,

Coordinates
31° 36' 33" N , 97° 13' 24" W
KCC
Metar
KACT 201951Z 10008KT 10SM FEW035 32/22 A3013 RMK AO2 SLP195 T03170217

Description

Waco Regional Airport is a public use airport located 8 km northwest of the central business district of Waco, a city in McLennan County, Texas.

Climatology

Humid “subtropical” climate (Köppen climate classification Cfa) - characterized by hot, humid summers and cool winters. Significant amounts of precipitation occur in all seasons in most areas. Winter rainfall (and sometimes snowfall) is associated with large storms that the westerlies steer from west to east. Most summer rainfall occurs during thunderstorms and occasional tropical storms (hurricanes).

Airport map

Aerial View

SKYbrary Partners:

Safety knowledge contributed by: